Villa Grove, Colorado
Current Conditions -  °F | °C
As of 12:53 PM on Saturday 25 Oct 2014 (Local Time) from K04V Reporting Station
Clear Clear  
Wind Chill: 64°   Ceiling: Unl
Heat Index: 64°   Visibility: 10mi
Dew Point: 27°   Wind: 3mph
Humidity: 24%   Direction: 120°ESE
Pressure: 30.38"   Gusts: NA
Location:  38.25°N, 105.95°W
Report Text: K04V 251853Z AUTO 12003KT 10SM CLR 18/M03 A3038 RMK AO2
Loading
Personal Weather Stations






























Interactive Weather Map
Tropical Storm Tracking
New forecast layout! Learn more

10-Day Weather Forecast

Advertisements
Track Severe Weather on mobile